Time;durP1;ratioP1;P1;durP2;ratioP2;P2;SDS_P1;SDS_P2;PMS_P1;PMS_P2;Temp;Humidity;BMP_temperature;BMP_pressure;BME280_temperature;BME280_humidity;BME280_pressure;Samples;Min_cycle;Max_cycle;Signal;HPM_P1;HPM_P2
2023/01/06 09:12:27;;;;;;;101.60;68.47;;;;;;;41.05;36.35;101335.88;4667854;27;1882404;-74
2023/01/06 09:14:53;;;;;;;129.43;80.73;;;;;;;40.78;36.43;101341.53;4821589;29;20644;-73
2023/01/06 11:20:35;;;;;;;99.97;43.47;;;;;;;41.91;33.34;101244.44;4889137;23;20534;-74
2023/01/06 11:23:33;;;;;;;85.67;39.50;;;;;;;41.64;34.15;101237.44;4856410;29;20464;-72
2023/01/06 11:26:10;;;;;;;155.17;81.27;;;;;;;41.56;34.12;101227.38;4822790;29;20478;-73
2023/01/06 11:28:36;;;;;;;77.70;42.10;;;;;;;41.71;33.91;101220.59;4875452;29;20820;-72
2023/01/06 11:31:07;;;;;;;155.23;84.47;;;;;;;41.88;33.91;101209.69;4851073;29;20432;-73
2023/01/06 11:33:46;;;;;;;342.30;213.73;;;;;;;41.82;33.59;101211.78;4856727;29;20496;-72
2023/01/06 11:36:14;;;;;;;225.93;144.00;;;;;;;42.23;33.21;101201.38;4854535;29;20507;-75
2023/01/06 11:38:51;;;;;;;111.87;68.07;;;;;;;42.16;33.15;101201.91;4854502;29;20840;-74
2023/01/06 11:41:45;;;;;;;304.77;193.57;;;;;;;42.35;33.05;101199.56;4861469;29;20445;-72
2023/01/06 11:44:17;;;;;;;122.27;68.60;;;;;;;42.20;33.14;101194.69;4856637;29;20439;-71
2023/01/06 11:46:55;;;;;;;76.33;44.43;;;;;;;41.85;33.46;101186.59;4860331;29;20466;-73
2023/01/06 11:49:29;;;;;;;82.07;47.20;;;;;;;41.76;33.79;101185.84;4861256;29;20450;-74
2023/01/06 11:52:29;;;;;;;64.57;32.33;;;;;;;42.08;33.69;101180.91;4860820;29;20439;-73
2023/01/06 11:55:07;;;;;;;100.03;36.13;;;;;;;42.05;33.68;101176.94;4851068;29;20486;-74
2023/01/06 11:58:01;;;;;;;87.50;31.40;;;;;;;41.96;34.19;101178.09;4858217;29;20567;-72
2023/01/06 12:00:52;;;;;;;71.50;35.90;;;;;;;42.02;33.50;101169.41;4856672;29;20985;-72
2023/01/06 12:03:40;;;;;;;73.90;32.40;;;;;;;42.03;33.78;101164.75;4860548;29;20935;-70
2023/01/06 12:06:28;;;;;;;95.90;45.13;;;;;;;41.81;34.40;101155.72;4873238;29;20458;-71
2023/01/06 12:09:03;;;;;;;75.53;35.27;;;;;;;41.91;34.32;101151.00;4862232;29;21028;-72
2023/01/06 12:11:47;;;;;;;67.27;30.20;;;;;;;41.85;34.05;101153.91;4858812;29;20449;-76
2023/01/06 12:14:31;;;;;;;65.97;31.20;;;;;;;41.88;34.42;101146.22;4850461;29;20470;-75
2023/01/06 12:17:29;;;;;;;64.27;33.27;;;;;;;42.30;33.67;101139.78;4857595;29;20435;-73
2023/01/06 12:20:10;;;;;;;102.27;49.67;;;;;;;41.86;34.10;101146.53;4838417;29;20494;-72
2023/01/06 12:22:45;;;;;;;66.07;31.17;;;;;;;42.02;34.03;101138.63;4843596;29;20443;-71
2023/01/06 12:25:34;;;;;;;52.20;30.97;;;;;;;42.28;33.86;101128.38;4843564;29;20427;-72
2023/01/06 12:28:05;;;;;;;79.23;31.23;;;;;;;42.30;33.83;101123.44;4843246;29;20881;-71
2023/01/06 12:30:54;;;;;;;76.30;33.80;;;;;;;41.86;34.41;101122.00;4843342;29;20439;-72
2023/01/06 12:33:32;;;;;;;86.37;35.27;;;;;;;42.18;33.89;101117.88;4836619;29;20480;-72
2023/01/06 12:36:04;;;;;;;80.07;31.33;;;;;;;42.10;33.77;101122.22;4839841;29;20441;-75
2023/01/06 12:38:53;;;;;;;54.97;30.10;;;;;;;42.40;33.60;101116.75;4843687;29;20439;-73
2023/01/06 12:41:22;;;;;;;81.40;32.10;;;;;;;42.39;33.90;101109.72;4840461;29;20925;-73
2023/01/06 12:43:58;;;;;;;123.70;56.43;;;;;;;42.51;33.46;101098.88;4842719;29;20452;-75
2023/01/06 12:46:31;;;;;;;138.70;69.27;;;;;;;42.27;33.75;101091.34;4832770;29;20851;-75
2023/01/06 12:49:02;;;;;;;272.50;162.63;;;;;;;42.20;34.02;101085.63;4843396;29;20444;-74
2023/01/06 12:51:43;;;;;;;69.10;38.20;;;;;;;42.64;33.56;101089.66;4860402;29;20435;-73
2023/01/06 12:54:20;;;;;;;79.03;40.57;;;;;;;42.58;32.93;101082.81;4842749;29;20482;-73
2023/01/06 12:56:55;;;;;;;93.27;36.13;;;;;;;42.46;33.72;101087.38;4843253;29;20439;-75
2023/01/06 12:59:44;;;;;;;64.60;29.13;;;;;;;42.87;32.64;101073.72;4852465;29;20434;-76
2023/01/06 13:02:40;;;;;;;104.27;42.33;;;;;;;42.76;33.40;101074.47;4838800;29;20515;-74
2023/01/06 13:05:28;;;;;;;80.67;41.00;;;;;;;42.52;33.56;101067.75;4831297;29;20531;-76
2023/01/06 13:07:56;;;;;;;78.87;40.50;;;;;;;42.53;33.56;101060.34;4832351;29;20470;-75
2023/01/06 13:10:22;;;;;;;64.53;33.27;;;;;;;42.63;33.56;101052.59;4831555;29;20500;-78
2023/01/06 13:13:00;;;;;;;100.57;45.67;;;;;;;42.33;33.55;101054.59;4832845;29;20854;-73
2023/01/06 13:15:31;;;;;;;161.40;78.53;;;;;;;41.97;35.05;101054.31;4830542;29;20272;-73
2023/01/06 13:18:17;;;;;;;71.90;39.30;;;;;;;42.64;33.89;101045.22;4825272;29;20420;-74
2023/01/06 13:20:49;;;;;;;187.77;88.17;;;;;;;42.56;33.97;101040.63;4825519;29;20479;-75
2023/01/06 13:23:41;;;;;;;208.57;91.33;;;;;;;42.43;34.01;101028.06;4826150;29;20428;-72
2023/01/06 13:26:27;;;;;;;110.13;49.23;;;;;;;41.69;35.10;101019.38;4842971;29;20491;-75
2023/01/06 13:29:13;;;;;;;103.93;44.70;;;;;;;42.42;33.97;101015.53;4843358;29;20466;-74
2023/01/06 13:31:59;;;;;;;103.10;52.00;;;;;;;42.54;33.86;101007.41;4843358;29;20426;-74
2023/01/06 13:34:50;;;;;;;58.20;28.20;;;;;;;42.11;34.14;101003.06;4842660;29;20486;-77
2023/01/06 13:37:41;;;;;;;67.93;30.53;;;;;;;42.44;34.18;100997.72;4840906;29;20507;-73
2023/01/06 13:40:13;;;;;;;83.30;45.43;;;;;;;42.26;34.26;100991.63;4858386;29;20424;-73
2023/01/06 13:42:47;;;;;;;95.63;44.30;;;;;;;42.71;33.97;100988.19;4845446;29;20461;-73
2023/01/06 13:45:25;;;;;;;71.10;30.20;;;;;;;42.80;33.33;100983.44;4863165;29;20984;-73
2023/01/06 13:47:52;;;;;;;57.43;31.67;;;;;;;43.12;32.86;100976.34;4846723;29;20423;-73
2023/01/06 13:50:21;;;;;;;54.33;28.73;;;;;;;43.05;33.11;100969.88;4845971;29;20427;-73
2023/01/06 13:52:48;;;;;;;71.60;28.60;;;;;;;42.66;33.88;100974.75;4846743;29;20476;-72
2023/01/06 13:55:23;;;;;;;78.40;34.30;;;;;;;42.69;33.72;100965.91;4835117;29;20502;-72
2023/01/06 13:57:50;;;;;;;61.33;33.53;;;;;;;42.83;33.67;100969.09;4856571;29;20447;-71
2023/01/06 14:00:19;;;;;;;74.28;35.72;;;;;;;42.72;33.66;100961.69;4846315;29;20449;-73
2023/01/06 14:02:45;;;;;;;112.60;58.13;;;;;;;42.48;34.10;100954.19;4863708;29;20171;-73
2023/01/06 14:05:22;;;;;;;68.83;39.37;;;;;;;43.02;33.28;100937.78;4863144;29;20428;-73
2023/01/06 14:07:58;;;;;;;56.90;28.87;;;;;;;43.34;32.67;100945.09;4846500;29;20186;-73
2023/01/06 14:10:30;;;;;;;113.77;44.97;;;;;;;43.42;32.43;100941.47;4846538;29;20426;-72
2023/01/06 14:12:56;;;;;;;94.50;46.10;;;;;;;43.18;33.00;100930.53;4846356;29;20431;-73
2023/01/06 14:15:30;;;;;;;76.30;43.00;;;;;;;43.05;33.52;100931.66;4834301;29;20451;-73
2023/01/06 14:17:57;;;;;;;115.77;61.07;;;;;;;43.10;33.32;100928.72;4828063;29;20504;-72
2023/01/06 14:20:35;;;;;;;388.93;219.77;;;;;;;43.11;33.35;100922.91;4827749;29;20496;-73
2023/01/06 14:23:17;;;;;;;188.93;101.60;;;;;;;43.27;32.99;100920.25;4827960;29;20417;-72
2023/01/06 14:25:50;;;;;;;65.17;34.53;;;;;;;43.18;32.94;100927.78;4842454;29;20991;-72
2023/01/06 14:28:19;;;;;;;439.53;256.07;;;;;;;42.97;33.14;100921.59;4846237;29;20422;-73
2023/01/06 14:30:50;;;;;;;301.00;180.13;;;;;;;42.78;33.80;100924.88;4863073;29;20400;-73
2023/01/06 14:33:36;;;;;;;108.00;60.77;;;;;;;42.87;33.79;100915.47;4846122;29;20840;-73
2023/01/06 14:36:13;;;;;;;78.60;38.47;;;;;;;43.10;33.26;100913.13;4829150;29;20428;-72
2023/01/06 14:38:56;;;;;;;73.30;32.23;;;;;;;42.93;33.50;100913.31;4827384;29;20416;-73
2023/01/06 14:41:42;;;;;;;95.47;36.77;;;;;;;42.83;34.00;100902.81;4844500;29;20452;-73
2023/01/06 14:44:30;;;;;;;75.77;28.87;;;;;;;43.16;33.07;100903.56;4846379;29;21056;-72
2023/01/06 14:47:01;;;;;;;57.67;35.07;;;;;;;43.07;33.09;100902.06;4845983;29;20451;-72
2023/01/06 14:49:45;;;;;;;69.77;34.03;;;;;;;43.09;33.43;100903.31;4862837;29;20400;-72
2023/01/06 14:52:21;;;;;;;61.40;28.13;;;;;;;43.04;33.43;100900.84;4862485;29;20403;-72
2023/01/06 14:54:51;;;;;;;78.10;36.33;;;;;;;43.13;33.22;100906.16;4838699;29;20460;-72
2023/01/06 14:57:47;;;;;;;79.23;33.67;;;;;;;42.76;33.83;100899.88;4827241;29;20421;-72
2023/01/06 15:00:26;;;;;;;86.40;31.93;;;;;;;42.87;33.42;100899.09;4835982;29;20436;-72
2023/01/06 15:02:57;;;;;;;78.17;32.60;;;;;;;42.38;34.49;100895.44;4832421;29;20815;-72
2023/01/06 15:05:36;;;;;;;74.33;34.87;;;;;;;42.58;34.28;100902.78;4842149;29;20456;-76
2023/01/06 15:08:02;;;;;;;85.00;34.93;;;;;;;42.28;34.54;100893.94;4843874;29;20435;-77
2023/01/06 15:10:34;;;;;;;81.17;36.30;;;;;;;42.58;34.21;100900.06;4843700;29;20443;-73
2023/01/06 15:13:01;;;;;;;76.60;34.37;;;;;;;42.59;34.24;100900.84;4842998;29;20420;-73
2023/01/06 15:15:30;;;;;;;71.70;32.50;;;;;;;42.50;34.44;100898.22;4859726;29;20771;-72
2023/01/06 15:17:57;;;;;;;66.33;30.47;;;;;;;42.72;34.37;100896.22;4845120;29;20420;-74
2023/01/06 15:20:38;;;;;;;88.73;35.07;;;;;;;42.62;34.12;100900.19;4834086;29;20497;-74
2023/01/06 15:23:04;;;;;;;67.63;30.57;;;;;;;42.65;34.34;100888.59;4825943;29;20432;-76
2023/01/06 15:25:33;;;;;;;74.50;31.43;;;;;;;42.80;33.78;100895.34;4831287;29;20436;-74
2023/01/06 15:27:59;;;;;;;70.77;36.23;;;;;;;42.57;34.21;100894.91;4843147;29;20484;-76
2023/01/06 15:30:33;;;;;;;59.03;32.33;;;;;;;42.44;34.62;100890.56;4840402;29;20497;-73
2023/01/06 15:33:00;;;;;;;61.10;33.83;;;;;;;42.85;33.79;100892.38;4835407;29;20463;-72
2023/01/06 15:35:30;;;;;;;72.93;32.13;;;;;;;43.02;34.00;100894.91;4831512;29;20768;-73
2023/01/06 15:38:13;;;;;;;65.07;31.00;;;;;;;43.01;34.05;100878.88;4830695;29;20452;-77
2023/01/06 15:40:40;;;;;;;59.97;32.93;;;;;;;43.06;33.71;100884.13;4833885;29;20421;-77
2023/01/06 15:43:07;;;;;;;61.07;32.50;;;;;;;43.11;33.73;100881.94;4832824;29;20938;-78
2023/01/06 15:45:34;;;;;;;67.90;35.87;;;;;;;43.29;33.69;100879.78;4830706;29;20975;-73
2023/01/06 15:48:09;;;;;;;65.17;35.10;;;;;;;42.98;33.79;100883.09;4825718;29;20425;-72
2023/01/06 15:50:35;;;;;;;71.53;40.53;;;;;;;43.14;33.67;100888.66;4823583;29;20448;-72
2023/01/06 15:53:06;;;;;;;63.70;36.90;;;;;;;43.04;33.47;100878.22;4823365;29;20937;-72
2023/01/06 15:55:41;;;;;;;71.77;32.60;;;;;;;43.00;33.70;100889.00;4825768;29;20976;-73
2023/01/06 15:58:29;;;;;;;53.10;32.97;;;;;;;43.14;33.50;100883.19;4823343;29;20968;-73
2023/01/06 16:01:14;;;;;;;81.83;35.23;;;;;;;43.15;33.87;100887.50;4823298;29;20864;-73
2023/01/06 16:03:46;;;;;;;67.10;31.67;;;;;;;43.25;33.55;100886.25;4822986;29;20459;-73
2023/01/06 16:06:14;;;;;;;71.90;37.43;;;;;;;43.13;33.89;100887.84;4823162;29;20449;-73
2023/01/06 16:08:43;;;;;;;65.50;33.10;;;;;;;43.08;34.10;100890.03;4823347;29;20429;-74
2023/01/06 16:11:15;;;;;;;99.87;36.03;;;;;;;43.18;33.73;100897.75;4823283;29;20429;-73
2023/01/06 16:13:53;;;;;;;79.83;32.93;;;;;;;43.23;33.70;100892.06;4826862;29;20575;-73
2023/01/06 16:16:20;;;;;;;98.07;35.93;;;;;;;42.92;34.30;100903.53;4823015;29;20913;-74
2023/01/06 16:18:46;;;;;;;63.87;33.17;;;;;;;42.86;33.92;100893.97;4824464;29;20445;-73
2023/01/06 16:21:15;;;;;;;73.50;33.67;;;;;;;42.78;34.24;100900.31;4826052;29;21019;-74
2023/01/06 16:23:46;;;;;;;64.20;39.13;;;;;;;42.85;34.13;100895.91;4835731;29;20412;-74
2023/01/06 16:26:17;;;;;;;65.27;35.40;;;;;;;42.80;34.62;100898.84;4827881;29;20428;-74
2023/01/06 16:28:47;;;;;;;51.47;33.90;;;;;;;42.90;34.09;100906.56;4825833;29;20471;-74
2023/01/06 16:31:46;;;;;;;74.63;37.70;;;;;;;42.77;34.40;100907.72;4825964;29;20424;-74
2023/01/06 16:34:19;;;;;;;70.73;34.77;;;;;;;42.94;34.07;100906.72;4826884;29;20551;-74
2023/01/06 16:36:47;;;;;;;68.83;34.13;;;;;;;42.81;34.26;100905.91;4861004;29;20909;-73
2023/01/06 16:39:14;;;;;;;55.20;32.80;;;;;;;42.59;34.62;100917.22;4844035;29;20448;-74
2023/01/06 16:42:00;;;;;;;66.50;32.23;;;;;;;42.45;35.00;100920.22;4843694;29;20806;-73
2023/01/06 16:44:30;;;;;;;79.77;37.30;;;;;;;42.47;34.77;100930.78;4812903;29;20425;-73
2023/01/06 16:46:57;;;;;;;70.73;36.30;;;;;;;42.49;34.84;100939.47;4825768;29;20423;-73
2023/01/06 16:49:24;;;;;;;94.23;37.30;;;;;;;42.23;35.47;100942.41;4835683;29;20951;-73
2023/01/06 16:51:50;;;;;;;99.80;40.83;;;;;;;42.31;35.55;100939.63;4843843;29;20422;-74
2023/01/06 16:54:19;;;;;;;79.50;38.50;;;;;;;42.38;35.37;100948.03;4860431;29;20451;-74
2023/01/06 16:56:46;;;;;;;84.10;37.43;;;;;;;42.18;35.45;100951.59;4843871;29;20843;-73
2023/01/06 16:59:17;;;;;;;66.30;37.17;;;;;;;42.19;35.70;100958.66;4860661;29;20400;-73
2023/01/06 17:01:46;;;;;;;71.17;35.87;;;;;;;41.84;36.20;100953.44;4843773;29;20861;-72
2023/01/06 17:04:13;;;;;;;57.17;36.00;;;;;;;42.07;35.88;100961.28;4843125;29;20503;-73
2023/01/06 17:06:41;;;;;;;88.13;41.50;;;;;;;42.09;36.00;100961.75;4825466;29;20870;-72
2023/01/06 17:09:13;;;;;;;64.87;36.30;;;;;;;42.06;35.92;100965.16;4842141;29;20401;-72
2023/01/06 17:11:55;;;;;;;82.13;39.10;;;;;;;41.85;36.46;100960.47;4828002;29;20431;-71
2023/01/06 17:14:22;;;;;;;57.00;35.33;;;;;;;41.93;35.93;100964.28;4838249;29;20467;-75
2023/01/06 17:16:50;;;;;;;83.47;39.90;;;;;;;41.49;36.81;100966.44;4828025;29;20858;-72
2023/01/06 17:19:27;;;;;;;80.60;35.83;;;;;;;41.75;36.43;100960.09;4825613;29;20481;-73
2023/01/06 17:22:12;;;;;;;81.40;37.13;;;;;;;41.70;36.61;100966.47;4826638;29;20430;-73
2023/01/06 17:24:39;;;;;;;72.33;37.80;;;;;;;41.60;36.53;100975.03;4826014;29;20504;-73
2023/01/06 17:27:21;;;;;;;100.87;41.87;;;;;;;41.64;36.93;100969.72;4826157;29;20425;-73
2023/01/06 17:29:48;;;;;;;91.20;39.40;;;;;;;41.16;37.29;100968.16;4825237;29;20414;-73
2023/01/06 17:32:38;;;;;;;68.87;37.17;;;;;;;41.61;36.82;100977.41;4825818;29;21093;-74
2023/01/06 17:35:25;;;;;;;84.30;35.30;;;;;;;41.39;36.87;100979.63;4824897;29;20453;-74
2023/01/06 17:37:52;;;;;;;92.33;45.60;;;;;;;41.33;37.04;100981.75;4830124;29;20452;-74
2023/01/06 17:40:24;;;;;;;68.77;39.23;;;;;;;41.51;36.82;100985.19;4837601;29;20441;-72
2023/01/06 17:43:02;;;;;;;74.90;38.93;;;;;;;41.42;36.88;100987.13;4839543;29;20839;-73
2023/01/06 17:45:30;;;;;;;80.93;42.30;;;;;;;41.53;36.89;100985.63;4833446;29;20460;-73
2023/01/06 17:47:56;;;;;;;106.90;42.80;;;;;;;41.47;36.73;100992.41;4836150;29;20515;-71
2023/01/06 17:50:31;;;;;;;78.93;43.80;;;;;;;41.41;36.87;100991.78;4845067;29;20584;-71
2023/01/06 17:56:08;;;;;;;88.73;39.30;;;;;;;41.86;36.21;101000.19;4845195;29;20492;-71
2023/01/06 17:58:38;;;;;;;68.10;37.33;;;;;;;41.96;35.91;101000.97;4842753;29;20995;-71
2023/01/06 18:01:09;;;;;;;104.40;43.83;;;;;;;41.64;36.18;101005.13;4827591;29;20967;-73
2023/01/06 18:03:41;;;;;;;81.23;41.23;;;;;;;41.59;36.64;101006.13;4856553;24;20500;-73
2023/01/06 18:06:12;;;;;;;83.60;39.17;;;;;;;41.46;36.63;101009.88;4844634;29;20436;-73
2023/01/06 18:08:38;;;;;;;70.47;35.43;;;;;;;41.65;36.27;101012.97;4843217;29;20432;-74
2023/01/06 18:11:10;;;;;;;103.30;43.50;;;;;;;41.50;36.75;101016.25;4842874;29;20646;-74
2023/01/06 18:13:41;;;;;;;72.70;38.83;;;;;;;41.32;37.55;101010.06;4841795;29;20479;-73
2023/01/06 18:16:31;;;;;;;67.77;37.50;;;;;;;41.48;37.11;101013.84;4830595;29;20797;-73
2023/01/06 18:19:24;;;;;;;67.07;35.53;;;;;;;41.28;37.49;101006.38;4833182;29;20813;-73
2023/01/06 18:21:51;;;;;;;61.93;33.60;;;;;;;41.06;37.69;101015.56;4824974;29;20490;-77
2023/01/06 18:24:48;;;;;;;78.27;40.10;;;;;;;41.28;37.15;101014.56;4823405;29;20943;-73
2023/01/06 18:27:32;;;;;;;91.23;39.00;;;;;;;41.29;36.69;101016.94;4818214;29;20434;-73
2023/01/06 18:30:21;;;;;;;88.73;41.60;;;;;;;41.43;36.88;101015.94;4813417;29;20542;-72
2023/01/06 18:32:50;;;;;;;91.50;41.13;;;;;;;41.48;36.84;101023.94;4823048;29;20524;-72
2023/01/06 18:35:27;;;;;;;82.87;39.77;;;;;;;41.44;36.74;101023.03;4820789;29;20516;-72
2023/01/06 18:37:58;;;;;;;84.93;41.50;;;;;;;41.51;35.99;101026.81;4806447;29;21026;-71
2023/01/06 18:40:26;;;;;;;91.37;38.90;;;;;;;41.44;36.31;101025.75;4812384;29;20536;-71
2023/01/06 18:42:54;;;;;;;82.17;34.27;;;;;;;41.25;36.27;101029.63;4816024;29;20423;-71
2023/01/06 18:45:34;;;;;;;82.37;40.03;;;;;;;41.43;36.63;101035.00;4813701;29;20450;-71
2023/01/06 18:48:25;;;;;;;91.70;42.87;;;;;;;41.54;35.60;101036.25;4823798;29;20810;-71
2023/01/06 18:50:54;;;;;;;84.53;39.40;;;;;;;41.60;35.63;101045.84;4823776;29;20424;-72
2023/01/06 18:53:23;;;;;;;86.27;42.63;;;;;;;41.60;36.01;101043.09;4825337;29;20453;-72
2023/01/06 18:55:52;;;;;;;76.37;38.87;;;;;;;41.57;36.07;101038.34;4813706;29;20529;-72
2023/01/06 18:58:51;;;;;;;83.00;43.63;;;;;;;41.44;36.48;101042.06;4823263;29;20437;-73
2023/01/06 19:01:43;;;;;;;84.73;42.30;;;;;;;41.62;35.98;101043.59;4824063;29;20934;-77
2023/01/06 19:04:29;;;;;;;92.90;40.13;;;;;;;41.52;36.41;101044.75;4829094;29;20554;-74
2023/01/06 19:06:59;;;;;;;76.10;38.30;;;;;;;41.69;35.88;101049.34;4833041;29;20434;-72
2023/01/06 19:09:42;;;;;;;97.73;40.27;;;;;;;41.51;36.13;101047.81;4827590;29;20430;-72
2023/01/06 19:12:11;;;;;;;87.60;41.43;;;;;;;41.69;35.95;101046.59;4830039;29;20876;-72
2023/01/06 19:14:49;;;;;;;88.57;44.53;;;;;;;41.79;35.97;101048.97;4829512;29;20461;-72
2023/01/06 19:17:28;;;;;;;67.83;34.73;;;;;;;41.70;35.36;101056.38;4840468;29;20472;-73
2023/01/06 19:19:55;;;;;;;84.03;36.90;;;;;;;41.71;35.73;101054.44;4830857;29;20540;-73
2023/01/06 19:22:35;;;;;;;83.33;37.00;;;;;;;41.77;35.84;101062.13;4893145;23;20503;-71
2023/01/06 19:25:31;;;;;;;80.93;32.67;;;;;;;41.92;35.84;101062.69;4856844;29;20866;-72
2023/01/06 19:27:59;;;;;;;76.57;37.73;;;;;;;42.01;35.29;101066.97;4859554;29;20469;-73
2023/01/06 19:30:27;;;;;;;86.30;36.43;;;;;;;42.01;35.06;101077.06;4871315;29;20519;-71
2023/01/06 19:32:54;;;;;;;92.80;39.97;;;;;;;42.05;35.29;101076.09;4858270;29;20457;-71
2023/01/06 19:35:29;;;;;;;105.17;41.00;;;;;;;41.93;35.44;101084.19;4859586;29;20546;-71
2023/01/06 19:38:08;;;;;;;77.43;39.40;;;;;;;41.87;35.87;101088.22;4840494;29;20451;-71
2023/01/06 19:40:41;;;;;;;69.90;38.87;;;;;;;41.93;35.48;101088.78;4846092;29;20428;-71
2023/01/06 19:43:20;;;;;;;93.97;43.07;;;;;;;41.81;35.56;101090.31;4879964;23;20514;-73
2023/01/06 19:45:47;;;;;;;96.13;38.03;;;;;;;41.65;36.07;101097.41;4834194;29;20939;-77
2023/01/06 19:48:19;;;;;;;74.03;40.33;;;;;;;41.67;35.63;101097.06;4835271;29;20436;-72
2023/01/06 19:50:45;;;;;;;70.60;34.87;;;;;;;41.42;35.86;101104.22;4836872;29;20452;-72
2023/01/06 19:53:35;;;;;;;69.03;37.43;;;;;;;41.48;35.69;101105.63;4839313;29;20446;-72
2023/01/06 19:56:32;;;;;;;82.20;39.23;;;;;;;41.66;35.65;101118.06;4842238;29;20484;-71
2023/01/06 19:59:15;;;;;;;63.40;36.23;;;;;;;41.53;35.88;101129.97;4858403;29;20424;-71
2023/01/06 20:01:43;;;;;;;85.17;36.70;;;;;;;41.73;35.60;101131.97;4831909;29;20436;-72
2023/01/06 20:04:22;;;;;;;64.80;38.07;;;;;;;41.77;35.48;101134.88;4835270;29;20868;-71
2023/01/06 20:06:49;;;;;;;99.33;42.43;;;;;;;41.44;36.12;101127.28;4836361;29;20436;-72
2023/01/06 20:09:15;;;;;;;94.37;41.80;;;;;;;41.43;36.08;101141.19;4837845;29;20812;-73
2023/01/06 20:11:42;;;;;;;92.80;39.80;;;;;;;41.17;36.80;101138.50;4837769;29;21577;-72
2023/01/06 20:14:09;;;;;;;82.73;36.70;;;;;;;41.25;36.38;101138.50;4836798;29;20526;-72
2023/01/06 20:16:36;;;;;;;99.23;39.30;;;;;;;41.21;36.56;101145.72;4835108;29;20443;-72
2023/01/06 20:19:03;;;;;;;72.73;35.30;;;;;;;41.21;36.96;101148.44;4837834;29;20475;-72
2023/01/06 20:21:29;;;;;;;78.10;37.10;;;;;;;41.15;37.42;101144.28;4831978;29;20455;-72
2023/01/06 20:23:57;;;;;;;85.70;36.10;;;;;;;41.12;37.55;101150.34;4831859;29;20463;-73
2023/01/06 20:26:23;;;;;;;84.03;40.77;;;;;;;41.10;37.50;101154.53;4825789;29;20465;-72
2023/01/06 20:28:49;;;;;;;71.60;36.73;;;;;;;41.11;37.59;101154.19;4831670;29;21060;-73
2023/01/06 20:31:15;;;;;;;67.03;33.70;;;;;;;41.22;36.90;101154.66;4825381;29;20462;-72
2023/01/06 20:33:41;;;;;;;72.37;35.17;;;;;;;41.04;37.20;101149.25;4818954;29;20480;-72
2023/01/06 20:36:07;;;;;;;84.37;36.27;;;;;;;40.90;36.99;101143.16;4818012;29;20878;-72
2023/01/06 20:38:33;;;;;;;67.33;31.93;;;;;;;41.03;37.09;101152.28;4825442;29;20464;-72
2023/01/06 20:40:59;;;;;;;69.83;33.77;;;;;;;41.18;37.07;101156.44;4825868;29;20444;-72
2023/01/06 20:43:25;;;;;;;63.57;32.70;;;;;;;41.18;37.28;101154.50;4825605;29;20535;-72
2023/01/06 20:45:51;;;;;;;62.73;34.23;;;;;;;41.14;37.46;101159.00;4828557;29;20462;-72
2023/01/06 20:48:17;;;;;;;85.37;36.30;;;;;;;40.44;38.43;101162.72;4843582;29;20432;-72
2023/01/06 20:50:43;;;;;;;87.93;33.97;;;;;;;40.87;37.58;101159.28;4842579;29;20535;-72
2023/01/06 20:53:09;;;;;;;70.57;38.07;;;;;;;40.95;37.58;101161.25;4828713;29;20461;-71
2023/01/06 20:55:35;;;;;;;49.53;30.80;;;;;;;41.16;37.19;101172.28;4829150;29;20471;-72
2023/01/06 20:58:02;;;;;;;79.57;35.37;;;;;;;41.02;37.62;101167.81;4830201;29;21015;-72
2023/01/06 21:00:28;;;;;;;76.30;35.00;;;;;;;40.88;37.41;101166.31;4841633;29;20436;-72
2023/01/06 21:02:54;;;;;;;67.67;32.40;;;;;;;40.91;37.50;101166.53;4843597;29;20531;-72
2023/01/06 21:05:20;;;;;;;69.93;31.47;;;;;;;40.93;37.49;101172.44;4831919;29;20821;-72
2023/01/06 21:07:46;;;;;;;89.27;32.83;;;;;;;40.82;37.76;101171.13;4832526;29;20845;-71
2023/01/06 21:10:13;;;;;;;64.63;28.10;;;;;;;40.86;38.05;101171.28;4832724;29;20463;-72
2023/01/06 21:12:39;;;;;;;58.10;30.73;;;;;;;41.02;37.59;101172.47;4829405;29;20984;-72
2023/01/06 21:15:10;;;;;;;87.13;35.47;;;;;;;41.13;37.54;101171.03;4830503;29;20464;-73
2023/01/06 21:17:36;;;;;;;80.73;36.57;;;;;;;40.88;38.00;101172.56;4832426;29;20929;-73
2023/01/06 21:20:03;;;;;;;85.87;35.97;;;;;;;40.88;38.24;101167.13;4830636;29;20447;-72
2023/01/06 21:22:29;;;;;;;73.53;32.00;;;;;;;41.14;37.78;101169.91;4829409;29;20996;-72
2023/01/06 21:24:55;;;;;;;82.03;35.33;;;;;;;40.96;38.00;101171.81;4835512;29;20416;-73
2023/01/06 21:27:21;;;;;;;76.87;33.03;;;;;;;41.05;37.62;101167.16;4831209;29;20510;-72
2023/01/06 21:29:46;;;;;;;64.70;32.53;;;;;;;41.05;37.76;101171.81;4836611;29;20444;-72
2023/01/06 21:32:13;;;;;;;59.00;30.33;;;;;;;41.05;37.54;101174.53;4823625;29;20433;-72
2023/01/06 21:34:39;;;;;;;89.07;32.23;;;;;;;40.79;38.14;101178.00;4823943;29;20525;-73
2023/01/06 21:37:05;;;;;;;65.97;33.70;;;;;;;40.93;38.01;101174.38;4824388;29;20424;-73
2023/01/06 21:39:31;;;;;;;80.50;34.83;;;;;;;40.73;38.50;101179.28;4830758;29;20988;-72
2023/01/06 21:44:41;;;;;;;73.63;29.53;;;;;;;41.14;37.90;101188.94;4841519;29;20457;-72
2023/01/06 21:47:08;;;;;;;71.33;30.30;;;;;;;41.00;37.70;101183.63;4822505;29;20429;-72
2023/01/06 21:49:34;;;;;;;50.77;28.77;;;;;;;41.16;37.50;101183.19;4822056;29;20923;-72
2023/01/06 21:52:02;;;;;;;71.40;31.57;;;;;;;41.15;37.27;101187.03;4823041;29;20474;-72
2023/01/06 21:54:28;;;;;;;80.23;33.20;;;;;;;41.11;37.23;101188.78;4823130;29;20457;-72
2023/01/06 21:56:55;;;;;;;79.80;36.93;;;;;;;40.86;38.09;101184.91;4821938;29;20435;-72
2023/01/06 21:59:21;;;;;;;63.87;33.17;;;;;;;41.04;37.81;101181.88;4823275;29;20414;-72
2023/01/06 22:01:47;;;;;;;59.33;27.80;;;;;;;40.95;38.18;101180.31;4822106;29;20487;-72
2023/01/06 22:04:12;;;;;;;57.70;32.03;;;;;;;41.05;37.36;101178.03;4826208;29;20418;-72
2023/01/06 22:06:41;;;;;;;79.80;32.30;;;;;;;41.10;37.83;101177.09;4825057;29;20421;-72
2023/01/06 22:09:10;;;;;;;85.13;33.07;;;;;;;41.18;37.52;101184.44;4824270;29;20469;-72
2023/01/06 22:11:38;;;;;;;64.17;36.00;;;;;;;41.20;37.50;101175.97;4823505;29;20437;-72
2023/01/06 22:14:05;;;;;;;65.87;32.43;;;;;;;41.04;37.67;101172.94;4814884;29;20472;-72
2023/01/06 22:16:32;;;;;;;67.73;32.97;;;;;;;41.14;37.71;101180.78;4823242;29;20840;-72
2023/01/06 22:18:58;;;;;;;75.53;35.83;;;;;;;41.27;37.51;101166.19;4824289;29;20449;-72
2023/01/06 22:21:25;;;;;;;80.73;38.10;;;;;;;41.23;37.63;101170.66;4825312;29;20529;-72
2023/01/06 22:23:53;;;;;;;71.57;36.27;;;;;;;41.29;37.21;101171.31;4822327;29;20452;-73
2023/01/06 22:26:19;;;;;;;71.47;36.53;;;;;;;41.14;37.36;101177.25;4824566;29;20953;-72
2023/01/06 22:28:45;;;;;;;63.80;32.67;;;;;;;41.20;37.42;101163.16;4823204;29;20454;-72
2023/01/06 22:31:11;;;;;;;75.50;33.77;;;;;;;41.19;37.73;101160.75;4827179;29;20589;-72
2023/01/06 22:33:36;;;;;;;68.78;32.95;;;;;;;41.09;37.46;101161.88;4816619;29;20469;-72
2023/01/06 22:36:03;;;;;;;61.30;32.47;;;;;;;41.10;37.37;101157.25;4818888;29;20232;-72
2023/01/06 22:38:30;;;;;;;78.60;32.83;;;;;;;41.13;37.92;101162.84;4821696;29;20511;-72
2023/01/06 22:40:56;;;;;;;63.97;33.60;;;;;;;40.83;38.29;101159.16;4823807;29;20425;-73
2023/01/06 22:43:22;;;;;;;82.97;34.33;;;;;;;40.88;38.51;101158.97;4833308;29;20572;-72
2023/01/06 22:45:52;;;;;;;70.30;31.67;;;;;;;40.77;38.77;101163.94;4822588;29;20449;-72
2023/01/06 22:48:18;;;;;;;77.77;32.47;;;;;;;40.91;38.55;101165.72;4822588;29;20815;-73
2023/01/06 22:50:44;;;;;;;83.70;36.57;;;;;;;40.85;38.61;101159.63;4822713;29;20418;-73
2023/01/06 22:53:10;;;;;;;87.27;34.37;;;;;;;40.79;38.35;101156.25;4819429;29;20554;-72
2023/01/06 22:55:36;;;;;;;70.77;34.00;;;;;;;40.71;38.91;101159.78;4822601;29;20457;-72